sensor_id;sensor_type;location;lat;lon;timestamp;P1;durP1;ratioP1;P2;durP2;ratioP2
28551;SDS011;15752;49.560;8.708;2023-02-18T00:01:38;3.20;;;2.60;;
28551;SDS011;15752;49.560;8.708;2023-02-18T00:04:08;2.50;;;2.27;;
28551;SDS011;15752;49.560;8.708;2023-02-18T00:06:37;2.53;;;2.33;;
28551;SDS011;15752;49.560;8.708;2023-02-18T00:09:06;3.00;;;2.70;;
28551;SDS011;15752;49.560;8.708;2023-02-18T00:11:35;2.97;;;2.40;;
28551;SDS011;15752;49.560;8.708;2023-02-18T00:14:05;2.80;;;2.47;;
28551;SDS011;15752;49.560;8.708;2023-02-18T00:16:39;2.60;;;2.40;;
28551;SDS011;15752;49.560;8.708;2023-02-18T00:19:11;2.67;;;2.40;;
28551;SDS011;15752;49.560;8.708;2023-02-18T00:21:41;3.13;;;2.83;;
28551;SDS011;15752;49.560;8.708;2023-02-18T00:24:11;2.90;;;2.63;;
28551;SDS011;15752;49.560;8.708;2023-02-18T00:26:42;2.80;;;2.53;;
28551;SDS011;15752;49.560;8.708;2023-02-18T00:29:11;3.20;;;2.87;;
28551;SDS011;15752;49.560;8.708;2023-02-18T00:31:40;3.67;;;2.70;;
28551;SDS011;15752;49.560;8.708;2023-02-18T00:34:10;3.67;;;2.83;;
28551;SDS011;15752;49.560;8.708;2023-02-18T00:36:40;2.70;;;2.50;;
28551;SDS011;15752;49.560;8.708;2023-02-18T00:39:10;2.70;;;2.50;;
28551;SDS011;15752;49.560;8.708;2023-02-18T00:41:39;3.93;;;2.77;;
28551;SDS011;15752;49.560;8.708;2023-02-18T00:44:08;3.03;;;2.83;;
28551;SDS011;15752;49.560;8.708;2023-02-18T00:46:38;3.50;;;3.03;;
28551;SDS011;15752;49.560;8.708;2023-02-18T00:49:07;2.87;;;2.67;;
28551;SDS011;15752;49.560;8.708;2023-02-18T00:51:37;2.40;;;2.20;;
28551;SDS011;15752;49.560;8.708;2023-02-18T00:54:06;3.20;;;2.90;;
28551;SDS011;15752;49.560;8.708;2023-02-18T00:56:34;3.47;;;3.17;;
28551;SDS011;15752;49.560;8.708;2023-02-18T00:59:03;3.33;;;3.03;;
28551;SDS011;15752;49.560;8.708;2023-02-18T01:01:31;3.27;;;2.97;;
28551;SDS011;15752;49.560;8.708;2023-02-18T01:04:00;4.20;;;3.20;;
28551;SDS011;15752;49.560;8.708;2023-02-18T01:06:31;4.10;;;3.27;;
28551;SDS011;15752;49.560;8.708;2023-02-18T01:09:01;3.50;;;3.20;;
28551;SDS011;15752;49.560;8.708;2023-02-18T01:11:30;3.13;;;2.83;;
28551;SDS011;15752;49.560;8.708;2023-02-18T01:13:58;3.20;;;2.90;;
28551;SDS011;15752;49.560;8.708;2023-02-18T01:16:28;3.40;;;3.10;;
28551;SDS011;15752;49.560;8.708;2023-02-18T01:18:57;3.20;;;2.90;;
28551;SDS011;15752;49.560;8.708;2023-02-18T01:21:25;4.83;;;3.30;;
28551;SDS011;15752;49.560;8.708;2023-02-18T01:23:55;2.73;;;2.53;;
28551;SDS011;15752;49.560;8.708;2023-02-18T01:26:24;3.03;;;2.77;;
28551;SDS011;15752;49.560;8.708;2023-02-18T01:28:53;3.10;;;2.87;;
28551;SDS011;15752;49.560;8.708;2023-02-18T01:34:35;3.43;;;3.03;;
28551;SDS011;15752;49.560;8.708;2023-02-18T01:37:03;3.43;;;3.10;;
28551;SDS011;15752;49.560;8.708;2023-02-18T01:39:35;2.93;;;2.73;;
28551;SDS011;15752;49.560;8.708;2023-02-18T01:42:04;3.00;;;2.80;;
28551;SDS011;15752;49.560;8.708;2023-02-18T01:44:33;3.20;;;2.90;;
28551;SDS011;15752;49.560;8.708;2023-02-18T01:47:02;2.90;;;2.70;;
28551;SDS011;15752;49.560;8.708;2023-02-18T01:49:31;2.93;;;2.63;;
28551;SDS011;15752;49.560;8.708;2023-02-18T01:52:03;3.20;;;2.90;;
28551;SDS011;15752;49.560;8.708;2023-02-18T01:54:38;2.97;;;2.77;;
28551;SDS011;15752;49.560;8.708;2023-02-18T01:57:09;2.87;;;2.57;;
28551;SDS011;15752;49.560;8.708;2023-02-18T01:59:42;2.80;;;2.60;;
28551;SDS011;15752;49.560;8.708;2023-02-18T02:02:16;3.10;;;2.80;;
28551;SDS011;15752;49.560;8.708;2023-02-18T02:04:49;3.13;;;2.80;;
28551;SDS011;15752;49.560;8.708;2023-02-18T02:07:18;2.97;;;2.67;;
28551;SDS011;15752;49.560;8.708;2023-02-18T02:09:55;2.93;;;2.70;;
28551;SDS011;15752;49.560;8.708;2023-02-18T02:12:34;2.97;;;2.63;;
28551;SDS011;15752;49.560;8.708;2023-02-18T02:15:26;3.13;;;2.80;;
28551;SDS011;15752;49.560;8.708;2023-02-18T02:18:11;3.43;;;2.70;;
28551;SDS011;15752;49.560;8.708;2023-02-18T02:21:16;3.80;;;2.57;;
28551;SDS011;15752;49.560;8.708;2023-02-18T02:24:32;3.37;;;2.60;;
28551;SDS011;15752;49.560;8.708;2023-02-18T02:27:37;2.97;;;2.67;;
28551;SDS011;15752;49.560;8.708;2023-02-18T02:30:41;3.20;;;2.63;;
28551;SDS011;15752;49.560;8.708;2023-02-18T02:33:47;3.43;;;2.40;;
28551;SDS011;15752;49.560;8.708;2023-02-18T02:36:42;2.43;;;2.23;;
28551;SDS011;15752;49.560;8.708;2023-02-18T02:39:19;2.73;;;2.20;;
28551;SDS011;15752;49.560;8.708;2023-02-18T02:41:57;2.60;;;2.30;;
28551;SDS011;15752;49.560;8.708;2023-02-18T02:44:37;2.07;;;1.93;;
28551;SDS011;15752;49.560;8.708;2023-02-18T02:47:16;2.40;;;2.20;;
28551;SDS011;15752;49.560;8.708;2023-02-18T02:49:52;2.33;;;2.13;;
28551;SDS011;15752;49.560;8.708;2023-02-18T02:52:29;2.77;;;2.50;;
28551;SDS011;15752;49.560;8.708;2023-02-18T02:55:02;2.70;;;2.50;;
28551;SDS011;15752;49.560;8.708;2023-02-18T02:57:40;3.37;;;2.37;;
28551;SDS011;15752;49.560;8.708;2023-02-18T03:00:22;2.83;;;2.50;;
28551;SDS011;15752;49.560;8.708;2023-02-18T03:06:24;2.00;;;1.90;;
28551;SDS011;15752;49.560;8.708;2023-02-18T03:09:15;3.73;;;1.90;;
28551;SDS011;15752;49.560;8.708;2023-02-18T03:11:51;3.03;;;1.97;;
28551;SDS011;15752;49.560;8.708;2023-02-18T03:14:27;2.27;;;2.07;;
28551;SDS011;15752;49.560;8.708;2023-02-18T03:17:01;1.70;;;1.60;;
28551;SDS011;15752;49.560;8.708;2023-02-18T03:19:38;3.30;;;2.00;;
28551;SDS011;15752;49.560;8.708;2023-02-18T03:22:14;2.40;;;2.10;;
28551;SDS011;15752;49.560;8.708;2023-02-18T03:24:49;2.20;;;2.00;;
28551;SDS011;15752;49.560;8.708;2023-02-18T03:27:22;2.00;;;1.90;;
28551;SDS011;15752;49.560;8.708;2023-02-18T03:29:56;2.47;;;1.70;;
28551;SDS011;15752;49.560;8.708;2023-02-18T03:32:30;2.03;;;1.83;;
28551;SDS011;15752;49.560;8.708;2023-02-18T03:35:02;1.93;;;1.83;;
28551;SDS011;15752;49.560;8.708;2023-02-18T03:37:38;1.70;;;1.57;;
28551;SDS011;15752;49.560;8.708;2023-02-18T03:40:12;2.13;;;1.60;;
28551;SDS011;15752;49.560;8.708;2023-02-18T03:42:42;1.90;;;1.67;;
28551;SDS011;15752;49.560;8.708;2023-02-18T03:45:11;2.77;;;1.73;;
28551;SDS011;15752;49.560;8.708;2023-02-18T03:47:40;3.03;;;1.80;;
28551;SDS011;15752;49.560;8.708;2023-02-18T03:50:08;1.73;;;1.63;;
28551;SDS011;15752;49.560;8.708;2023-02-18T03:52:40;1.67;;;1.53;;
28551;SDS011;15752;49.560;8.708;2023-02-18T03:55:08;1.60;;;1.50;;
28551;SDS011;15752;49.560;8.708;2023-02-18T03:57:37;1.60;;;1.50;;
28551;SDS011;15752;49.560;8.708;2023-02-18T04:00:06;2.03;;;1.70;;
28551;SDS011;15752;49.560;8.708;2023-02-18T04:02:40;1.60;;;1.33;;
28551;SDS011;15752;49.560;8.708;2023-02-18T04:05:08;1.67;;;1.57;;
28551;SDS011;15752;49.560;8.708;2023-02-18T04:07:39;2.33;;;2.13;;
28551;SDS011;15752;49.560;8.708;2023-02-18T04:10:07;2.07;;;1.97;;
28551;SDS011;15752;49.560;8.708;2023-02-18T04:12:36;2.17;;;1.97;;
28551;SDS011;15752;49.560;8.708;2023-02-18T04:15:05;2.67;;;2.47;;
28551;SDS011;15752;49.560;8.708;2023-02-18T04:17:34;4.77;;;2.77;;
28551;SDS011;15752;49.560;8.708;2023-02-18T04:20:03;2.93;;;2.43;;
28551;SDS011;15752;49.560;8.708;2023-02-18T04:22:33;2.70;;;2.37;;
28551;SDS011;15752;49.560;8.708;2023-02-18T04:25:03;2.60;;;2.40;;
28551;SDS011;15752;49.560;8.708;2023-02-18T04:27:33;3.27;;;2.43;;
28551;SDS011;15752;49.560;8.708;2023-02-18T04:30:02;3.40;;;2.97;;
28551;SDS011;15752;49.560;8.708;2023-02-18T04:32:32;3.70;;;2.83;;
28551;SDS011;15752;49.560;8.708;2023-02-18T04:35:01;2.83;;;2.60;;
28551;SDS011;15752;49.560;8.708;2023-02-18T04:37:29;2.23;;;2.03;;
28551;SDS011;15752;49.560;8.708;2023-02-18T04:39:58;2.87;;;2.57;;
28551;SDS011;15752;49.560;8.708;2023-02-18T04:42:27;3.83;;;2.97;;
28551;SDS011;15752;49.560;8.708;2023-02-18T04:44:56;3.27;;;2.57;;
28551;SDS011;15752;49.560;8.708;2023-02-18T04:47:24;3.10;;;2.80;;
28551;SDS011;15752;49.560;8.708;2023-02-18T04:49:53;3.53;;;2.97;;
28551;SDS011;15752;49.560;8.708;2023-02-18T04:52:21;3.30;;;3.00;;
28551;SDS011;15752;49.560;8.708;2023-02-18T04:54:50;3.57;;;2.60;;
28551;SDS011;15752;49.560;8.708;2023-02-18T04:57:19;3.27;;;2.97;;
28551;SDS011;15752;49.560;8.708;2023-02-18T04:59:48;5.43;;;3.20;;
28551;SDS011;15752;49.560;8.708;2023-02-18T05:02:17;3.23;;;2.80;;
28551;SDS011;15752;49.560;8.708;2023-02-18T05:04:45;3.30;;;3.00;;
28551;SDS011;15752;49.560;8.708;2023-02-18T05:07:13;3.47;;;3.17;;
28551;SDS011;15752;49.560;8.708;2023-02-18T05:09:42;3.57;;;2.93;;
28551;SDS011;15752;49.560;8.708;2023-02-18T05:12:11;3.60;;;3.23;;
28551;SDS011;15752;49.560;8.708;2023-02-18T05:14:39;3.43;;;3.13;;
28551;SDS011;15752;49.560;8.708;2023-02-18T05:17:09;3.97;;;3.63;;
28551;SDS011;15752;49.560;8.708;2023-02-18T05:19:37;4.00;;;3.70;;
28551;SDS011;15752;49.560;8.708;2023-02-18T05:22:06;3.80;;;3.50;;
28551;SDS011;15752;49.560;8.708;2023-02-18T05:24:34;4.10;;;3.70;;
28551;SDS011;15752;49.560;8.708;2023-02-18T05:27:02;4.00;;;3.60;;
28551;SDS011;15752;49.560;8.708;2023-02-18T05:29:31;4.20;;;3.80;;
28551;SDS011;15752;49.560;8.708;2023-02-18T05:31:59;4.10;;;3.80;;
28551;SDS011;15752;49.560;8.708;2023-02-18T05:34:29;4.47;;;3.80;;
28551;SDS011;15752;49.560;8.708;2023-02-18T05:36:58;4.80;;;3.87;;
28551;SDS011;15752;49.560;8.708;2023-02-18T05:39:26;4.63;;;3.90;;
28551;SDS011;15752;49.560;8.708;2023-02-18T05:41:55;4.63;;;4.23;;
28551;SDS011;15752;49.560;8.708;2023-02-18T05:44:23;4.20;;;3.90;;
28551;SDS011;15752;49.560;8.708;2023-02-18T05:46:59;4.70;;;4.23;;
28551;SDS011;15752;49.560;8.708;2023-02-18T05:49:32;5.27;;;4.77;;
28551;SDS011;15752;49.560;8.708;2023-02-18T05:52:01;5.50;;;5.00;;
28551;SDS011;15752;49.560;8.708;2023-02-18T05:54:31;5.70;;;4.63;;
28551;SDS011;15752;49.560;8.708;2023-02-18T05:57:00;5.57;;;4.97;;
28551;SDS011;15752;49.560;8.708;2023-02-18T05:59:28;5.00;;;4.50;;
28551;SDS011;15752;49.560;8.708;2023-02-18T06:01:57;5.13;;;4.60;;
28551;SDS011;15752;49.560;8.708;2023-02-18T06:04:26;4.73;;;4.33;;
28551;SDS011;15752;49.560;8.708;2023-02-18T06:06:56;5.07;;;4.57;;
28551;SDS011;15752;49.560;8.708;2023-02-18T06:09:24;4.53;;;4.13;;
28551;SDS011;15752;49.560;8.708;2023-02-18T06:11:52;4.53;;;4.13;;
28551;SDS011;15752;49.560;8.708;2023-02-18T06:14:21;4.37;;;3.97;;
28551;SDS011;15752;49.560;8.708;2023-02-18T06:16:50;4.30;;;3.90;;
28551;SDS011;15752;49.560;8.708;2023-02-18T06:19:18;6.20;;;4.87;;
28551;SDS011;15752;49.560;8.708;2023-02-18T06:21:48;6.13;;;4.23;;
28551;SDS011;15752;49.560;8.708;2023-02-18T06:24:23;5.07;;;4.57;;
28551;SDS011;15752;49.560;8.708;2023-02-18T06:26:53;5.63;;;4.67;;
28551;SDS011;15752;49.560;8.708;2023-02-18T06:29:43;5.27;;;4.40;;
28551;SDS011;15752;49.560;8.708;2023-02-18T06:32:12;4.40;;;4.00;;
28551;SDS011;15752;49.560;8.708;2023-02-18T06:34:40;4.77;;;4.37;;
28551;SDS011;15752;49.560;8.708;2023-02-18T06:37:09;4.60;;;4.20;;
28551;SDS011;15752;49.560;8.708;2023-02-18T06:39:38;5.10;;;4.60;;
28551;SDS011;15752;49.560;8.708;2023-02-18T06:42:07;4.80;;;4.17;;
28551;SDS011;15752;49.560;8.708;2023-02-18T06:44:35;4.77;;;4.27;;
28551;SDS011;15752;49.560;8.708;2023-02-18T06:47:04;5.47;;;4.50;;
28551;SDS011;15752;49.560;8.708;2023-02-18T06:49:32;4.53;;;3.90;;
28551;SDS011;15752;49.560;8.708;2023-02-18T06:52:01;4.47;;;4.07;;
28551;SDS011;15752;49.560;8.708;2023-02-18T06:54:30;4.90;;;4.40;;
28551;SDS011;15752;49.560;8.708;2023-02-18T06:57:01;5.03;;;4.53;;
28551;SDS011;15752;49.560;8.708;2023-02-18T06:59:29;5.40;;;4.10;;
28551;SDS011;15752;49.560;8.708;2023-02-18T07:01:58;7.30;;;4.20;;
28551;SDS011;15752;49.560;8.708;2023-02-18T07:04:26;5.73;;;5.13;;
28551;SDS011;15752;49.560;8.708;2023-02-18T07:06:54;4.87;;;4.47;;
28551;SDS011;15752;49.560;8.708;2023-02-18T07:09:23;4.87;;;4.37;;
28551;SDS011;15752;49.560;8.708;2023-02-18T07:11:51;4.60;;;4.20;;
28551;SDS011;15752;49.560;8.708;2023-02-18T07:14:21;7.03;;;5.10;;
28551;SDS011;15752;49.560;8.708;2023-02-18T07:16:50;5.17;;;4.53;;
28551;SDS011;15752;49.560;8.708;2023-02-18T07:19:18;7.57;;;4.80;;
28551;SDS011;15752;49.560;8.708;2023-02-18T07:21:47;5.40;;;4.67;;
28551;SDS011;15752;49.560;8.708;2023-02-18T07:24:15;5.37;;;4.53;;
28551;SDS011;15752;49.560;8.708;2023-02-18T07:26:43;5.10;;;4.60;;
28551;SDS011;15752;49.560;8.708;2023-02-18T07:29:12;6.73;;;6.03;;
28551;SDS011;15752;49.560;8.708;2023-02-18T07:31:42;6.33;;;5.47;;
28551;SDS011;15752;49.560;8.708;2023-02-18T07:34:10;6.63;;;5.33;;
28551;SDS011;15752;49.560;8.708;2023-02-18T07:36:38;6.97;;;5.93;;
28551;SDS011;15752;49.560;8.708;2023-02-18T07:39:07;8.27;;;6.20;;
28551;SDS011;15752;49.560;8.708;2023-02-18T07:41:36;6.27;;;5.67;;
28551;SDS011;15752;49.560;8.708;2023-02-18T07:44:13;6.20;;;5.60;;
28551;SDS011;15752;49.560;8.708;2023-02-18T07:46:43;6.63;;;5.60;;
28551;SDS011;15752;49.560;8.708;2023-02-18T07:49:13;5.50;;;5.00;;
28551;SDS011;15752;49.560;8.708;2023-02-18T07:52:07;6.10;;;5.50;;
28551;SDS011;15752;49.560;8.708;2023-02-18T07:54:36;5.27;;;4.77;;
28551;SDS011;15752;49.560;8.708;2023-02-18T07:57:04;7.17;;;5.87;;
28551;SDS011;15752;49.560;8.708;2023-02-18T07:59:33;5.53;;;5.03;;
28551;SDS011;15752;49.560;8.708;2023-02-18T08:02:03;5.93;;;5.43;;
28551;SDS011;15752;49.560;8.708;2023-02-18T08:04:33;5.73;;;5.20;;
28551;SDS011;15752;49.560;8.708;2023-02-18T08:07:01;5.70;;;5.20;;
28551;SDS011;15752;49.560;8.708;2023-02-18T08:09:29;6.07;;;5.17;;
28551;SDS011;15752;49.560;8.708;2023-02-18T08:11:58;25.90;;;12.13;;
28551;SDS011;15752;49.560;8.708;2023-02-18T08:14:26;28.10;;;12.47;;
28551;SDS011;15752;49.560;8.708;2023-02-18T08:16:54;16.83;;;8.27;;
28551;SDS011;15752;49.560;8.708;2023-02-18T08:19:24;30.07;;;12.93;;
28551;SDS011;15752;49.560;8.708;2023-02-18T08:21:53;18.43;;;9.30;;
28551;SDS011;15752;49.560;8.708;2023-02-18T08:24:21;24.70;;;14.17;;
28551;SDS011;15752;49.560;8.708;2023-02-18T08:26:50;15.57;;;11.33;;
28551;SDS011;15752;49.560;8.708;2023-02-18T08:29:26;11.03;;;8.13;;
28551;SDS011;15752;49.560;8.708;2023-02-18T08:31:55;10.70;;;8.13;;
28551;SDS011;15752;49.560;8.708;2023-02-18T08:34:26;8.33;;;5.83;;
28551;SDS011;15752;49.560;8.708;2023-02-18T08:36:54;7.53;;;6.40;;
28551;SDS011;15752;49.560;8.708;2023-02-18T08:39:23;9.93;;;7.60;;
28551;SDS011;15752;49.560;8.708;2023-02-18T08:41:51;20.30;;;13.97;;
28551;SDS011;15752;49.560;8.708;2023-02-18T08:44:19;10.70;;;8.20;;
28551;SDS011;15752;49.560;8.708;2023-02-18T08:46:48;9.73;;;6.17;;
28551;SDS011;15752;49.560;8.708;2023-02-18T08:49:16;10.77;;;7.10;;
28551;SDS011;15752;49.560;8.708;2023-02-18T08:51:47;10.57;;;7.60;;
28551;SDS011;15752;49.560;8.708;2023-02-18T08:54:16;6.10;;;5.50;;
28551;SDS011;15752;49.560;8.708;2023-02-18T08:56:45;14.23;;;12.30;;
28551;SDS011;15752;49.560;8.708;2023-02-18T08:59:13;10.20;;;8.37;;
28551;SDS011;15752;49.560;8.708;2023-02-18T09:01:42;6.83;;;6.13;;
28551;SDS011;15752;49.560;8.708;2023-02-18T09:04:10;6.23;;;5.40;;
28551;SDS011;15752;49.560;8.708;2023-02-18T09:06:39;8.43;;;5.73;;
28551;SDS011;15752;49.560;8.708;2023-02-18T09:09:09;7.63;;;5.73;;
28551;SDS011;15752;49.560;8.708;2023-02-18T09:11:38;6.57;;;5.43;;
28551;SDS011;15752;49.560;8.708;2023-02-18T09:14:06;6.10;;;5.43;;
28551;SDS011;15752;49.560;8.708;2023-02-18T09:16:35;6.80;;;5.27;;
28551;SDS011;15752;49.560;8.708;2023-02-18T09:19:04;5.40;;;4.77;;
28551;SDS011;15752;49.560;8.708;2023-02-18T09:21:33;5.67;;;4.93;;
28551;SDS011;15752;49.560;8.708;2023-02-18T09:24:02;5.77;;;4.50;;
28551;SDS011;15752;49.560;8.708;2023-02-18T09:26:32;5.10;;;4.50;;
28551;SDS011;15752;49.560;8.708;2023-02-18T09:29:01;5.20;;;4.70;;
28551;SDS011;15752;49.560;8.708;2023-02-18T09:31:29;6.07;;;4.47;;
28551;SDS011;15752;49.560;8.708;2023-02-18T09:33:59;7.97;;;5.60;;
28551;SDS011;15752;49.560;8.708;2023-02-18T09:36:31;7.97;;;5.37;;
28551;SDS011;15752;49.560;8.708;2023-02-18T09:39:00;6.83;;;5.30;;
28551;SDS011;15752;49.560;8.708;2023-02-18T09:41:30;9.17;;;7.00;;
28551;SDS011;15752;49.560;8.708;2023-02-18T09:44:08;9.63;;;7.87;;
28551;SDS011;15752;49.560;8.708;2023-02-18T09:46:42;8.23;;;5.73;;
28551;SDS011;15752;49.560;8.708;2023-02-18T09:49:16;7.73;;;5.43;;
28551;SDS011;15752;49.560;8.708;2023-02-18T09:51:48;5.57;;;4.97;;
28551;SDS011;15752;49.560;8.708;2023-02-18T09:54:17;6.70;;;5.33;;
28551;SDS011;15752;49.560;8.708;2023-02-18T09:56:48;5.63;;;4.73;;
28551;SDS011;15752;49.560;8.708;2023-02-18T09:59:20;6.87;;;4.73;;
28551;SDS011;15752;49.560;8.708;2023-02-18T10:01:51;6.73;;;5.60;;
28551;SDS011;15752;49.560;8.708;2023-02-18T10:04:24;6.17;;;5.57;;
28551;SDS011;15752;49.560;8.708;2023-02-18T10:06:57;6.30;;;5.70;;
28551;SDS011;15752;49.560;8.708;2023-02-18T10:09:30;5.90;;;5.20;;
28551;SDS011;15752;49.560;8.708;2023-02-18T10:12:09;6.30;;;5.70;;
28551;SDS011;15752;49.560;8.708;2023-02-18T10:14:42;6.37;;;5.67;;
28551;SDS011;15752;49.560;8.708;2023-02-18T10:17:14;6.97;;;5.70;;
28551;SDS011;15752;49.560;8.708;2023-02-18T10:19:44;5.37;;;4.87;;
28551;SDS011;15752;49.560;8.708;2023-02-18T10:22:16;6.33;;;5.23;;
28551;SDS011;15752;49.560;8.708;2023-02-18T10:24:48;5.73;;;4.47;;
28551;SDS011;15752;49.560;8.708;2023-02-18T10:27:22;6.27;;;5.27;;
28551;SDS011;15752;49.560;8.708;2023-02-18T10:29:53;5.47;;;4.87;;
28551;SDS011;15752;49.560;8.708;2023-02-18T10:32:46;7.03;;;5.40;;
28551;SDS011;15752;49.560;8.708;2023-02-18T10:35:20;6.73;;;5.20;;
28551;SDS011;15752;49.560;8.708;2023-02-18T10:37:57;6.60;;;5.70;;
28551;SDS011;15752;49.560;8.708;2023-02-18T10:40:40;5.63;;;4.90;;
28551;SDS011;15752;49.560;8.708;2023-02-18T10:43:23;5.17;;;4.67;;
28551;SDS011;15752;49.560;8.708;2023-02-18T10:46:04;9.20;;;5.13;;
28551;SDS011;15752;49.560;8.708;2023-02-18T10:48:45;5.83;;;5.10;;
28551;SDS011;15752;49.560;8.708;2023-02-18T10:51:30;5.43;;;4.93;;
28551;SDS011;15752;49.560;8.708;2023-02-18T10:54:01;5.73;;;5.13;;
28551;SDS011;15752;49.560;8.708;2023-02-18T10:56:31;6.47;;;5.23;;
28551;SDS011;15752;49.560;8.708;2023-02-18T10:59:08;6.30;;;5.07;;
28551;SDS011;15752;49.560;8.708;2023-02-18T11:01:39;5.97;;;5.00;;
28551;SDS011;15752;49.560;8.708;2023-02-18T11:04:14;8.40;;;5.23;;
28551;SDS011;15752;49.560;8.708;2023-02-18T11:06:46;6.00;;;5.40;;
28551;SDS011;15752;49.560;8.708;2023-02-18T11:09:24;6.03;;;5.43;;
28551;SDS011;15752;49.560;8.708;2023-02-18T11:11:58;7.33;;;6.47;;
28551;SDS011;15752;49.560;8.708;2023-02-18T11:14:37;6.93;;;6.23;;
28551;SDS011;15752;49.560;8.708;2023-02-18T11:17:14;7.83;;;6.07;;
28551;SDS011;15752;49.560;8.708;2023-02-18T11:19:51;6.67;;;5.83;;
28551;SDS011;15752;49.560;8.708;2023-02-18T11:22:23;9.43;;;6.03;;
28551;SDS011;15752;49.560;8.708;2023-02-18T11:24:56;6.93;;;6.20;;
28551;SDS011;15752;49.560;8.708;2023-02-18T11:27:28;8.47;;;6.10;;
28551;SDS011;15752;49.560;8.708;2023-02-18T11:30:13;7.07;;;6.43;;
28551;SDS011;15752;49.560;8.708;2023-02-18T11:32:50;7.83;;;6.67;;
28551;SDS011;15752;49.560;8.708;2023-02-18T11:35:24;6.53;;;5.90;;
28551;SDS011;15752;49.560;8.708;2023-02-18T11:37:58;7.50;;;6.30;;
28551;SDS011;15752;49.560;8.708;2023-02-18T11:40:30;6.73;;;6.03;;
28551;SDS011;15752;49.560;8.708;2023-02-18T11:43:05;5.90;;;5.40;;
28551;SDS011;15752;49.560;8.708;2023-02-18T11:45:44;5.83;;;5.23;;
28551;SDS011;15752;49.560;8.708;2023-02-18T11:48:16;6.13;;;5.00;;
28551;SDS011;15752;49.560;8.708;2023-02-18T11:50:50;5.97;;;4.60;;
28551;SDS011;15752;49.560;8.708;2023-02-18T11:53:27;5.50;;;5.00;;
28551;SDS011;15752;49.560;8.708;2023-02-18T11:55:59;5.50;;;4.77;;
28551;SDS011;15752;49.560;8.708;2023-02-18T11:58:33;5.40;;;4.87;;
28551;SDS011;15752;49.560;8.708;2023-02-18T12:01:06;5.67;;;4.67;;
28551;SDS011;15752;49.560;8.708;2023-02-18T12:03:43;6.63;;;4.80;;
28551;SDS011;15752;49.560;8.708;2023-02-18T12:06:17;5.73;;;4.57;;
28551;SDS011;15752;49.560;8.708;2023-02-18T12:08:51;4.87;;;4.27;;
28551;SDS011;15752;49.560;8.708;2023-02-18T12:11:26;4.93;;;4.27;;
28551;SDS011;15752;49.560;8.708;2023-02-18T12:13:58;6.70;;;4.53;;
28551;SDS011;15752;49.560;8.708;2023-02-18T12:16:30;5.63;;;4.30;;
28551;SDS011;15752;49.560;8.708;2023-02-18T12:19:21;4.60;;;4.10;;
28551;SDS011;15752;49.560;8.708;2023-02-18T12:22:09;4.43;;;4.03;;
28551;SDS011;15752;49.560;8.708;2023-02-18T12:24:49;5.40;;;4.47;;
28551;SDS011;15752;49.560;8.708;2023-02-18T12:27:32;4.67;;;4.27;;
28551;SDS011;15752;49.560;8.708;2023-02-18T12:33:07;9.80;;;5.03;;
28551;SDS011;15752;49.560;8.708;2023-02-18T12:35:51;6.30;;;4.20;;
28551;SDS011;15752;49.560;8.708;2023-02-18T12:38:43;6.53;;;4.50;;
28551;SDS011;15752;49.560;8.708;2023-02-18T12:41:32;5.73;;;4.73;;
28551;SDS011;15752;49.560;8.708;2023-02-18T12:44:30;8.87;;;4.37;;
28551;SDS011;15752;49.560;8.708;2023-02-18T12:53:25;6.53;;;4.53;;
28551;SDS011;15752;49.560;8.708;2023-02-18T12:56:17;4.27;;;3.87;;
28551;SDS011;15752;49.560;8.708;2023-02-18T12:59:12;4.30;;;3.80;;
28551;SDS011;15752;49.560;8.708;2023-02-18T13:02:03;5.20;;;4.33;;
28551;SDS011;15752;49.560;8.708;2023-02-18T13:04:51;5.20;;;3.87;;
28551;SDS011;15752;49.560;8.708;2023-02-18T13:07:30;4.23;;;3.60;;
28551;SDS011;15752;49.560;8.708;2023-02-18T13:10:19;4.13;;;3.60;;
28551;SDS011;15752;49.560;8.708;2023-02-18T13:13:12;3.90;;;3.13;;
28551;SDS011;15752;49.560;8.708;2023-02-18T13:15:47;5.30;;;3.50;;
28551;SDS011;15752;49.560;8.708;2023-02-18T13:18:21;5.03;;;3.17;;
28551;SDS011;15752;49.560;8.708;2023-02-18T13:21:00;4.87;;;3.27;;
28551;SDS011;15752;49.560;8.708;2023-02-18T13:23:34;5.93;;;3.80;;
28551;SDS011;15752;49.560;8.708;2023-02-18T13:26:08;5.17;;;3.37;;
28551;SDS011;15752;49.560;8.708;2023-02-18T13:28:42;3.63;;;3.00;;
28551;SDS011;15752;49.560;8.708;2023-02-18T13:31:18;8.30;;;2.97;;
28551;SDS011;15752;49.560;8.708;2023-02-18T13:33:59;3.73;;;3.20;;
28551;SDS011;15752;49.560;8.708;2023-02-18T13:36:51;8.03;;;3.20;;
28551;SDS011;15752;49.560;8.708;2023-02-18T13:39:30;3.57;;;2.97;;
28551;SDS011;15752;49.560;8.708;2023-02-18T13:42:10;4.87;;;3.20;;
28551;SDS011;15752;49.560;8.708;2023-02-18T13:47:57;7.70;;;3.10;;
28551;SDS011;15752;49.560;8.708;2023-02-18T13:50:30;6.73;;;3.13;;
28551;SDS011;15752;49.560;8.708;2023-02-18T13:53:20;5.03;;;2.93;;
28551;SDS011;15752;49.560;8.708;2023-02-18T13:56:03;3.23;;;2.93;;
28551;SDS011;15752;49.560;8.708;2023-02-18T13:58:36;3.57;;;2.87;;
28551;SDS011;15752;49.560;8.708;2023-02-18T14:01:13;3.67;;;3.10;;
28551;SDS011;15752;49.560;8.708;2023-02-18T14:03:50;6.83;;;3.10;;
28551;SDS011;15752;49.560;8.708;2023-02-18T14:06:25;4.33;;;3.00;;
28551;SDS011;15752;49.560;8.708;2023-02-18T14:12:16;3.77;;;3.23;;
28551;SDS011;15752;49.560;8.708;2023-02-18T14:14:53;3.80;;;3.10;;
28551;SDS011;15752;49.560;8.708;2023-02-18T14:20:31;5.63;;;3.67;;
28551;SDS011;15752;49.560;8.708;2023-02-18T14:26:16;5.33;;;2.77;;
28551;SDS011;15752;49.560;8.708;2023-02-18T14:28:53;6.57;;;3.57;;
28551;SDS011;15752;49.560;8.708;2023-02-18T14:31:29;4.17;;;3.27;;
28551;SDS011;15752;49.560;8.708;2023-02-18T14:44:03;2.83;;;2.47;;
28551;SDS011;15752;49.560;8.708;2023-02-18T14:46:50;3.33;;;2.53;;
28551;SDS011;15752;49.560;8.708;2023-02-18T14:49:35;5.77;;;3.03;;
28551;SDS011;15752;49.560;8.708;2023-02-18T14:52:11;4.63;;;2.73;;
28551;SDS011;15752;49.560;8.708;2023-02-18T14:54:50;5.20;;;2.70;;
28551;SDS011;15752;49.560;8.708;2023-02-18T14:57:18;3.17;;;2.63;;
28551;SDS011;15752;49.560;8.708;2023-02-18T14:59:57;2.40;;;2.20;;
28551;SDS011;15752;49.560;8.708;2023-02-18T15:02:27;4.27;;;2.90;;
28551;SDS011;15752;49.560;8.708;2023-02-18T15:05:07;7.07;;;5.20;;
28551;SDS011;15752;49.560;8.708;2023-02-18T15:07:40;4.53;;;3.17;;
28551;SDS011;15752;49.560;8.708;2023-02-18T15:10:13;4.33;;;3.20;;
28551;SDS011;15752;49.560;8.708;2023-02-18T15:12:42;4.07;;;3.20;;
28551;SDS011;15752;49.560;8.708;2023-02-18T15:15:12;3.90;;;2.73;;
28551;SDS011;15752;49.560;8.708;2023-02-18T15:17:49;3.50;;;3.00;;
28551;SDS011;15752;49.560;8.708;2023-02-18T15:20:18;5.63;;;3.90;;
28551;SDS011;15752;49.560;8.708;2023-02-18T15:22:47;3.60;;;3.27;;
28551;SDS011;15752;49.560;8.708;2023-02-18T15:25:18;5.87;;;3.70;;
28551;SDS011;15752;49.560;8.708;2023-02-18T15:27:50;5.20;;;4.27;;
28551;SDS011;15752;49.560;8.708;2023-02-18T15:30:23;3.70;;;3.30;;
28551;SDS011;15752;49.560;8.708;2023-02-18T15:32:55;3.47;;;2.73;;
28551;SDS011;15752;49.560;8.708;2023-02-18T15:35:26;4.33;;;2.67;;
28551;SDS011;15752;49.560;8.708;2023-02-18T15:37:58;3.63;;;2.43;;
28551;SDS011;15752;49.560;8.708;2023-02-18T15:40:30;2.83;;;2.40;;
28551;SDS011;15752;49.560;8.708;2023-02-18T15:43:02;4.37;;;2.83;;
28551;SDS011;15752;49.560;8.708;2023-02-18T15:45:34;5.17;;;3.27;;
28551;SDS011;15752;49.560;8.708;2023-02-18T15:48:05;3.10;;;2.70;;
28551;SDS011;15752;49.560;8.708;2023-02-18T15:50:44;3.63;;;2.67;;
28551;SDS011;15752;49.560;8.708;2023-02-18T15:53:18;3.43;;;2.30;;
28551;SDS011;15752;49.560;8.708;2023-02-18T15:55:48;2.73;;;2.30;;
28551;SDS011;15752;49.560;8.708;2023-02-18T15:58:21;4.17;;;2.30;;
28551;SDS011;15752;49.560;8.708;2023-02-18T16:00:55;3.07;;;2.50;;
28551;SDS011;15752;49.560;8.708;2023-02-18T16:03:26;3.67;;;2.50;;